Time,TemperatureF,DewpointF,PressureIn,WindDirection,WindDirectionDegrees,WindSpeedMPH,WindSpeedGustMPH,Humidity,HourlyPrecipIn,Conditions,Clouds,dailyrainin,SolarRadiationWatts/m^2,SoftwareType,DateUTC
2013-09-20 00:02:00,49.0,32.0,-100.00,WSW,241,3.0,7.0,52,0.00,,,0.00,0.000000,,2013-09-20 07:02:00,
2013-09-20 00:11:00,49.0,32.0,-100.00,WSW,241,3.0,7.0,52,0.00,,,0.00,0.000000,,2013-09-20 07:11:00,
2013-09-20 00:42:00,48.0,31.0,-100.00,WSW,246,5.0,7.0,52,0.00,,,0.00,0.000000,,2013-09-20 07:42:00,
2013-09-20 00:53:00,48.0,31.0,-100.00,WSW,246,5.0,7.0,52,0.00,,,0.00,0.000000,,2013-09-20 07:53:00,
2013-09-20 01:02:00,48.0,31.0,-100.00,WSW,246,5.0,7.0,52,0.00,,,0.00,0.000000,,2013-09-20 08:02:00,
2013-09-20 01:11:00,48.0,31.0,-100.00,WSW,246,5.0,7.0,52,0.00,,,0.00,0.000000,,2013-09-20 08:11:00,
2013-09-20 01:42:00,47.0,31.0,-100.00,WSW,239,5.0,7.0,54,0.00,,,0.00,0.000000,,2013-09-20 08:42:00,
2013-09-20 01:52:00,47.0,31.0,-100.00,WSW,239,5.0,7.0,54,0.00,,,0.00,0.000000,,2013-09-20 08:52:00,
2013-09-20 02:01:00,47.0,31.0,-100.00,WSW,239,5.0,7.0,54,0.00,,,0.00,0.000000,,2013-09-20 09:01:00,
2013-09-20 02:12:00,47.0,31.0,-100.00,WSW,239,5.0,7.0,54,0.00,,,0.00,0.000000,,2013-09-20 09:12:00,
2013-09-20 02:43:00,45.0,31.0,-100.00,WSW,249,5.0,7.0,57,0.00,,,0.00,0.000000,,2013-09-20 09:43:00,
2013-09-20 02:53:00,45.0,31.0,-100.00,WSW,249,5.0,7.0,57,0.00,,,0.00,0.000000,,2013-09-20 09:53:00,
2013-09-20 03:03:00,45.0,31.0,-100.00,WSW,249,5.0,7.0,57,0.00,,,0.00,0.000000,,2013-09-20 10:03:00,
2013-09-20 03:12:00,45.0,31.0,-100.00,WSW,249,5.0,7.0,57,0.00,,,0.00,0.000000,,2013-09-20 10:12:00,
2013-09-20 03:42:00,44.0,31.0,-100.00,WSW,246,5.0,7.0,59,0.00,,,0.00,0.000000,,2013-09-20 10:42:00,
2013-09-20 03:53:00,44.0,31.0,-100.00,WSW,246,5.0,7.0,59,0.00,,,0.00,0.000000,,2013-09-20 10:53:00,
2013-09-20 04:03:00,44.0,31.0,-100.00,WSW,246,5.0,7.0,59,0.00,,,0.00,0.000000,,2013-09-20 11:03:00,
2013-09-20 04:11:00,44.0,31.0,-100.00,WSW,246,5.0,7.0,59,0.00,,,0.00,0.000000,,2013-09-20 11:11:00,
2013-09-20 04:42:00,43.0,30.0,-100.00,WSW,247,5.0,7.0,61,0.00,,,0.00,0.000000,,2013-09-20 11:42:00,
2013-09-20 04:52:00,43.0,30.0,-100.00,WSW,247,5.0,7.0,61,0.00,,,0.00,0.000000,,2013-09-20 11:52:00,
2013-09-20 05:02:00,43.0,30.0,-100.00,WSW,247,5.0,7.0,61,0.00,,,0.00,0.000000,,2013-09-20 12:02:00,
2013-09-20 05:12:00,43.0,30.0,-100.00,WSW,247,5.0,7.0,61,0.00,,,0.00,0.000000,,2013-09-20 12:12:00,
2013-09-20 05:43:00,41.0,31.0,-100.00,SW,220,3.0,7.0,67,0.00,,,0.00,0.000000,,2013-09-20 12:43:00,
2013-09-20 05:52:00,41.0,31.0,-100.00,SW,220,3.0,7.0,67,0.00,,,0.00,0.000000,,2013-09-20 12:52:00,
2013-09-20 06:02:00,41.0,31.0,-100.00,SW,220,3.0,7.0,67,0.00,,,0.00,0.000000,,2013-09-20 13:02:00,
2013-09-20 06:12:00,41.0,31.0,-100.00,SW,220,3.0,7.0,67,0.00,,,0.00,0.000000,,2013-09-20 13:12:00,
2013-09-20 06:42:00,38.0,31.0,-100.00,SW,220,2.0,4.0,76,0.00,,,0.00,0.000000,,2013-09-20 13:42:00,
2013-09-20 06:52:00,38.0,31.0,-100.00,SW,220,2.0,4.0,76,0.00,,,0.00,0.000000,,2013-09-20 13:52:00,
2013-09-20 07:02:00,38.0,31.0,-100.00,SW,220,2.0,4.0,76,0.00,,,0.00,0.000000,,2013-09-20 14:02:00,
2013-09-20 07:11:00,38.0,31.0,-100.00,SW,220,2.0,4.0,76,0.00,,,0.00,0.000000,,2013-09-20 14:11:00,
2013-09-20 07:42:00,37.0,30.0,-100.00,South,184,4.0,9.0,75,0.00,,,0.00,5.000000,,2013-09-20 14:42:00,
2013-09-20 07:52:00,37.0,30.0,-100.00,South,184,4.0,9.0,75,0.00,,,0.00,5.000000,,2013-09-20 14:52:00,
2013-09-20 08:02:00,37.0,30.0,-100.00,South,184,4.0,9.0,75,0.00,,,0.00,5.000000,,2013-09-20 15:02:00,
2013-09-20 08:12:00,37.0,30.0,-100.00,South,184,4.0,9.0,75,0.00,,,0.00,5.000000,,2013-09-20 15:12:00,
2013-09-20 08:44:00,43.0,31.0,-100.00,SE,141,5.0,7.0,62,0.00,,,0.00,46.000000,,2013-09-20 15:44:00,
2013-09-20 08:54:00,43.0,31.0,-100.00,SE,141,5.0,7.0,62,0.00,,,0.00,46.000000,,2013-09-20 15:54:00,
2013-09-20 09:04:00,43.0,31.0,-100.00,SE,141,5.0,7.0,62,0.00,,,0.00,46.000000,,2013-09-20 16:04:00,
2013-09-20 09:13:00,43.0,31.0,-100.00,SE,141,5.0,7.0,62,0.00,,,0.00,46.000000,,2013-09-20 16:13:00,
2013-09-20 12:42:00,70.0,28.0,-100.00,SSW,197,7.0,18.0,21,0.00,,,0.00,535.000000,,2013-09-20 19:42:00,
2013-09-20 12:53:00,70.0,28.0,-100.00,SSW,197,7.0,18.0,21,0.00,,,0.00,535.000000,,2013-09-20 19:53:00,
2013-09-20 13:03:00,70.0,28.0,-100.00,SSW,197,7.0,18.0,21,0.00,,,0.00,535.000000,,2013-09-20 20:03:00,
2013-09-20 13:11:00,70.0,28.0,-100.00,SSW,197,7.0,18.0,21,0.00,,,0.00,535.000000,,2013-09-20 20:11:00,
2013-09-20 13:42:00,75.0,30.0,-100.00,SSW,194,7.0,16.0,19,0.00,,,0.00,654.000000,,2013-09-20 20:42:00,
2013-09-20 13:52:00,75.0,30.0,-100.00,SSW,194,7.0,16.0,19,0.00,,,0.00,654.000000,,2013-09-20 20:52:00,
2013-09-20 14:02:00,75.0,30.0,-100.00,SSW,194,7.0,16.0,19,0.00,,,0.00,654.000000,,2013-09-20 21:02:00,
2013-09-20 14:12:00,75.0,30.0,-100.00,SSW,194,7.0,16.0,19,0.00,,,0.00,654.000000,,2013-09-20 21:12:00,
2013-09-20 14:14:00,78.0,31.0,-100.00,South,190,7.0,18.0,18,0.00,,,0.00,796.000000,,2013-09-20 21:14:00,
2013-09-20 14:54:00,78.0,31.0,-100.00,South,190,7.0,18.0,18,0.00,,,0.00,796.000000,,2013-09-20 21:54:00,
2013-09-20 15:04:00,78.0,31.0,-100.00,South,190,7.0,18.0,18,0.00,,,0.00,796.000000,,2013-09-20 22:04:00,
2013-09-20 15:44:00,76.0,32.0,-100.00,WNW,286,6.0,18.0,20,0.00,,,0.00,626.000000,,2013-09-20 22:44:00,
2013-09-20 15:53:00,76.0,32.0,-100.00,WNW,286,6.0,18.0,20,0.00,,,0.00,626.000000,,2013-09-20 22:53:00,
2013-09-20 16:02:00,76.0,32.0,-100.00,WNW,286,6.0,18.0,20,0.00,,,0.00,626.000000,,2013-09-20 23:02:00,
2013-09-20 16:12:00,76.0,32.0,-100.00,WNW,286,6.0,18.0,20,0.00,,,0.00,626.000000,,2013-09-20 23:12:00,
2013-09-20 16:42:00,73.0,34.0,-100.00,South,169,4.0,14.0,24,0.00,,,0.00,380.000000,,2013-09-20 23:42:00,
2013-09-20 16:53:00,73.0,34.0,-100.00,South,169,4.0,14.0,24,0.00,,,0.00,380.000000,,2013-09-20 23:53:00,
2013-09-20 17:02:00,73.0,34.0,-100.00,South,169,4.0,14.0,24,0.00,,,0.00,380.000000,,2013-09-21 00:02:00,
2013-09-20 17:11:00,73.0,34.0,-100.00,South,169,4.0,14.0,24,0.00,,,0.00,380.000000,,2013-09-21 00:11:00,
2013-09-20 17:42:00,67.0,41.0,-100.00,North,9,8.0,15.0,39,0.00,,,0.00,289.000000,,2013-09-21 00:42:00,
2013-09-20 17:52:00,67.0,41.0,-100.00,North,9,8.0,15.0,39,0.00,,,0.00,289.000000,,2013-09-21 00:52:00,
2013-09-20 18:01:00,67.0,41.0,-100.00,North,9,8.0,15.0,39,0.00,,,0.00,289.000000,,2013-09-21 01:01:00,
2013-09-20 18:12:00,67.0,41.0,-100.00,North,9,8.0,15.0,39,0.00,,,0.00,289.000000,,2013-09-21 01:12:00,
2013-09-20 18:42:00,63.0,41.0,-100.00,NNW,334,4.0,12.0,45,0.00,,,0.00,51.000000,,2013-09-21 01:42:00,
2013-09-20 18:52:00,63.0,41.0,-100.00,NNW,334,4.0,12.0,45,0.00,,,0.00,51.000000,,2013-09-21 01:52:00,
2013-09-20 19:02:00,63.0,41.0,-100.00,NNW,334,4.0,12.0,45,0.00,,,0.00,51.000000,,2013-09-21 02:02:00,
2013-09-20 19:12:00,63.0,41.0,-100.00,NNW,334,4.0,12.0,45,0.00,,,0.00,51.000000,,2013-09-21 02:12:00,
2013-09-20 19:42:00,58.0,42.0,-100.00,WSW,253,8.0,18.0,56,0.00,,,0.00,20.000000,,2013-09-21 02:42:00,
2013-09-20 19:52:00,58.0,42.0,-100.00,WSW,253,8.0,18.0,56,0.00,,,0.00,20.000000,,2013-09-21 02:52:00,
2013-09-20 20:02:00,58.0,42.0,-100.00,WSW,253,8.0,18.0,56,0.00,,,0.00,20.000000,,2013-09-21 03:02:00,
2013-09-20 20:12:00,58.0,42.0,-100.00,WSW,253,8.0,18.0,56,0.00,,,0.00,20.000000,,2013-09-21 03:12:00,
2013-09-20 20:14:00,55.0,40.0,-100.00,WSW,245,5.0,13.0,57,0.00,,,0.00,0.000000,,2013-09-21 03:14:00,
2013-09-20 20:44:00,55.0,40.0,-100.00,WSW,245,5.0,13.0,57,0.00,,,0.00,0.000000,,2013-09-21 03:44:00,
2013-09-20 20:55:00,55.0,40.0,-100.00,WSW,245,5.0,13.0,57,0.00,,,0.00,0.000000,,2013-09-21 03:55:00,
2013-09-20 21:04:00,55.0,40.0,-100.00,WSW,245,5.0,13.0,57,0.00,,,0.00,0.000000,,2013-09-21 04:04:00,
2013-09-20 21:43:00,55.0,37.0,-100.00,South,190,5.0,13.0,50,0.00,,,0.00,0.000000,,2013-09-21 04:43:00,
2013-09-20 21:54:00,55.0,37.0,-100.00,South,190,5.0,13.0,50,0.00,,,0.00,0.000000,,2013-09-21 04:54:00,
2013-09-20 22:03:00,55.0,37.0,-100.00,South,190,5.0,13.0,50,0.00,,,0.00,0.000000,,2013-09-21 05:03:00,
2013-09-20 22:12:00,55.0,37.0,-100.00,South,190,5.0,13.0,50,0.00,,,0.00,0.000000,,2013-09-21 05:12:00,
2013-09-20 22:44:00,48.0,46.0,-100.00,SSE,167,6.0,15.0,93,0.02,,,0.02,0.000000,,2013-09-21 05:44:00,
2013-09-20 22:53:00,48.0,46.0,-100.00,SSE,167,6.0,15.0,93,0.02,,,0.02,0.000000,,2013-09-21 05:53:00,
2013-09-20 23:02:00,48.0,46.0,-100.00,SSE,167,6.0,15.0,93,0.02,,,0.02,0.000000,,2013-09-21 06:02:00,
2013-09-20 23:12:00,48.0,46.0,-100.00,SSE,167,6.0,15.0,93,0.02,,,0.02,0.000000,,2013-09-21 06:12:00,
2013-09-20 23:42:00,47.0,45.0,-100.00,SSE,148,4.0,13.0,91,0.00,,,0.02,0.000000,,2013-09-21 06:42:00,
2013-09-20 23:52:00,47.0,45.0,-100.00,SSE,148,4.0,13.0,91,0.00,,,0.02,0.000000,,2013-09-21 06:52:00,